Time;durP1;ratioP1;P1;durP2;ratioP2;P2;SDS_P1;SDS_P2;PMS_P1;PMS_P2;Temp;Humidity;BMP_temperature;BMP_pressure;BME280_temperature;BME280_humidity;BME280_pressure;Samples;Min_cycle;Max_cycle;Signal;HPM_P1;HPM_P2
2022/10/06 00:01:03;;;;;;;5.10;3.13;;;;;;;;;;5101006;28;20212;-64
2022/10/06 00:03:31;;;;;;;6.00;3.30;;;;;;;;;;5100922;28;20256;-64
2022/10/06 00:06:00;;;;;;;5.10;2.40;;;;;;;;;;5100717;28;20197;-64
2022/10/06 00:08:29;;;;;;;2.33;2.13;;;;;;;;;;5100851;28;20206;-64
2022/10/06 00:10:58;;;;;;;4.70;2.60;;;;;;;;;;5100265;28;20728;-63
2022/10/06 00:13:26;;;;;;;4.47;3.13;;;;;;;;;;5100549;28;20225;-64
2022/10/06 00:15:56;;;;;;;4.30;2.77;;;;;;;;;;5100766;28;20311;-63
2022/10/06 00:18:24;;;;;;;7.47;2.70;;;;;;;;;;5092925;28;20198;-63
2022/10/06 00:20:56;;;;;;;5.10;2.20;;;;;;;;;;5100735;28;20205;-64
2022/10/06 00:23:24;;;;;;;3.50;2.40;;;;;;;;;;5092933;28;20225;-63
2022/10/06 00:25:52;;;;;;;3.70;2.20;;;;;;;;;;5100143;28;20276;-63
2022/10/06 00:28:20;;;;;;;4.73;2.40;;;;;;;;;;5099606;28;20205;-64
2022/10/06 00:30:49;;;;;;;6.17;2.13;;;;;;;;;;5100429;28;20193;-64
2022/10/06 00:33:19;;;;;;;4.10;2.30;;;;;;;;;;5100037;28;20631;-64
2022/10/06 00:35:48;;;;;;;4.97;2.03;;;;;;;;;;5100144;28;20680;-63
2022/10/06 00:38:16;;;;;;;4.00;2.07;;;;;;;;;;5100269;28;20209;-63
2022/10/06 00:40:45;;;;;;;4.30;2.10;;;;;;;;;;5099957;28;20194;-63
2022/10/06 00:43:31;;;;;;;4.77;2.10;;;;;;;;;;5099626;28;20724;-63
2022/10/06 00:45:59;;;;;;;2.90;2.10;;;;;;;;;;5100038;28;20559;-64
2022/10/06 00:48:30;;;;;;;2.20;2.00;;;;;;;;;;5100134;28;20202;-64
2022/10/06 00:50:59;;;;;;;2.90;2.10;;;;;;;;;;5100355;28;20270;-64
2022/10/06 00:53:28;;;;;;;3.23;2.40;;;;;;;;;;5099363;28;20245;-64
2022/10/06 00:55:56;;;;;;;2.20;2.00;;;;;;;;;;5099652;28;20312;-64
2022/10/06 00:58:24;;;;;;;4.47;2.53;;;;;;;;;;5099438;28;20201;-64
2022/10/06 01:00:54;;;;;;;3.10;2.03;;;;;;;;;;5100007;28;20200;-63
2022/10/06 01:03:24;;;;;;;2.53;2.20;;;;;;;;;;5099615;28;20217;-63
2022/10/06 01:05:54;;;;;;;4.87;2.30;;;;;;;;;;5099997;28;20202;-63
2022/10/06 01:08:23;;;;;;;7.27;3.30;;;;;;;;;;5099551;28;20208;-63
2022/10/06 01:10:51;;;;;;;6.97;2.87;;;;;;;;;;5099524;28;20202;-63
2022/10/06 01:13:19;;;;;;;6.97;3.00;;;;;;;;;;5099171;28;20232;-64
2022/10/06 01:15:51;;;;;;;4.83;3.27;;;;;;;;;;5099472;28;20193;-64
2022/10/06 01:18:20;;;;;;;6.87;2.87;;;;;;;;;;5099264;28;20201;-64
2022/10/06 01:20:50;;;;;;;4.20;2.60;;;;;;;;;;5099381;28;20284;-63
2022/10/06 01:23:20;;;;;;;3.87;3.00;;;;;;;;;;5099088;28;20566;-63
2022/10/06 01:25:49;;;;;;;5.27;3.00;;;;;;;;;;5099440;28;20229;-63
2022/10/06 01:28:17;;;;;;;5.33;3.13;;;;;;;;;;5098829;28;20198;-63
2022/10/06 01:30:49;;;;;;;5.37;3.20;;;;;;;;;;5094804;28;20604;-63
2022/10/06 01:33:17;;;;;;;4.57;2.70;;;;;;;;;;5099154;28;20293;-63
2022/10/06 01:35:48;;;;;;;7.73;3.33;;;;;;;;;;5096574;28;20194;-64
2022/10/06 01:38:16;;;;;;;6.00;3.43;;;;;;;;;;5095275;28;20458;-63
2022/10/06 01:40:46;;;;;;;7.17;3.27;;;;;;;;;;5099256;28;20197;-63
2022/10/06 01:43:14;;;;;;;6.43;3.37;;;;;;;;;;5098922;28;20208;-63
2022/10/06 01:45:42;;;;;;;3.83;2.67;;;;;;;;;;5098839;28;20280;-63
2022/10/06 01:48:10;;;;;;;5.83;3.43;;;;;;;;;;5099883;28;20198;-63
2022/10/06 01:50:40;;;;;;;5.47;3.07;;;;;;;;;;5099399;28;20692;-63
2022/10/06 01:53:08;;;;;;;7.10;3.60;;;;;;;;;;5100311;28;20232;-63
2022/10/06 01:55:37;;;;;;;5.07;3.67;;;;;;;;;;5101251;28;20220;-63
2022/10/06 01:58:07;;;;;;;4.37;3.60;;;;;;;;;;5100858;28;20222;-63
2022/10/06 02:00:35;;;;;;;4.03;3.43;;;;;;;;;;5101724;28;20270;-63
2022/10/06 02:03:04;;;;;;;5.43;3.37;;;;;;;;;;5101298;28;20684;-63
2022/10/06 02:05:32;;;;;;;9.90;3.70;;;;;;;;;;5099490;28;20292;-64
2022/10/06 02:08:01;;;;;;;6.93;4.17;;;;;;;;;;5098503;28;20193;-63
2022/10/06 02:10:29;;;;;;;3.77;3.27;;;;;;;;;;5097363;28;20284;-64
2022/10/06 02:12:57;;;;;;;4.27;3.53;;;;;;;;;;5098055;28;20309;-63
2022/10/06 02:15:27;;;;;;;4.13;3.30;;;;;;;;;;5098320;28;20202;-64
2022/10/06 02:17:55;;;;;;;4.80;3.57;;;;;;;;;;5097046;28;20225;-63
2022/10/06 02:20:24;;;;;;;6.13;3.40;;;;;;;;;;5096979;28;20531;-64
2022/10/06 02:22:52;;;;;;;7.60;3.23;;;;;;;;;;5090127;28;20209;-63
2022/10/06 02:25:20;;;;;;;6.47;3.10;;;;;;;;;;5089205;28;20226;-63
2022/10/06 02:27:48;;;;;;;6.40;3.17;;;;;;;;;;5094246;28;20273;-64
2022/10/06 02:30:16;;;;;;;3.20;2.90;;;;;;;;;;5096782;28;20202;-64
2022/10/06 02:32:46;;;;;;;5.80;2.90;;;;;;;;;;5093944;28;20202;-63
2022/10/06 02:35:14;;;;;;;4.57;2.70;;;;;;;;;;5089572;28;20245;-63
2022/10/06 02:37:42;;;;;;;5.13;2.50;;;;;;;;;;5093312;28;20323;-64
2022/10/06 02:40:10;;;;;;;5.20;2.70;;;;;;;;;;5097894;28;20198;-64
2022/10/06 02:42:38;;;;;;;4.43;2.43;;;;;;;;;;5096487;28;20204;-63
2022/10/06 02:45:07;;;;;;;5.83;2.70;;;;;;;;;;5095895;28;20587;-64
2022/10/06 02:47:36;;;;;;;3.50;2.90;;;;;;;;;;5090985;28;20198;-63
2022/10/06 02:50:07;;;;;;;4.73;2.70;;;;;;;;;;5093817;28;20212;-64
2022/10/06 02:52:36;;;;;;;4.60;2.70;;;;;;;;;;5093676;28;20234;-63
2022/10/06 02:55:05;;;;;;;3.77;2.70;;;;;;;;;;5095397;28;20760;-64
2022/10/06 02:57:33;;;;;;;4.93;2.83;;;;;;;;;;5093577;28;20229;-63
2022/10/06 03:00:01;;;;;;;2.60;2.30;;;;;;;;;;5092147;28;20300;-64
2022/10/06 03:02:30;;;;;;;4.67;2.63;;;;;;;;;;5092674;28;20202;-64
2022/10/06 03:04:58;;;;;;;5.00;2.30;;;;;;;;;;5094578;28;20235;-64
2022/10/06 03:07:27;;;;;;;3.37;2.43;;;;;;;;;;5091494;28;20212;-64
2022/10/06 03:09:55;;;;;;;3.63;2.80;;;;;;;;;;5092062;28;20204;-64
2022/10/06 03:12:23;;;;;;;3.87;2.80;;;;;;;;;;5090539;28;20924;-64
2022/10/06 03:14:51;;;;;;;4.97;2.70;;;;;;;;;;5092515;28;20303;-64
2022/10/06 03:17:19;;;;;;;6.87;2.90;;;;;;;;;;5093125;28;20221;-64
2022/10/06 03:19:47;;;;;;;4.17;2.80;;;;;;;;;;5095340;28;20197;-64
2022/10/06 03:22:16;;;;;;;4.67;2.83;;;;;;;;;;5094566;28;20606;-63
2022/10/06 03:24:45;;;;;;;6.93;2.87;;;;;;;;;;5096598;28;20220;-64
2022/10/06 03:27:13;;;;;;;4.77;2.90;;;;;;;;;;5090731;28;20572;-63
2022/10/06 03:29:41;;;;;;;5.20;2.43;;;;;;;;;;5093911;28;20194;-64
2022/10/06 03:32:09;;;;;;;3.40;2.33;;;;;;;;;;5093972;28;20203;-64
2022/10/06 03:34:37;;;;;;;3.63;2.63;;;;;;;;;;5090986;28;20222;-64
2022/10/06 03:37:05;;;;;;;3.80;2.80;;;;;;;;;;5095189;28;20229;-64
2022/10/06 03:39:33;;;;;;;4.57;2.63;;;;;;;;;;5097393;28;20542;-64
2022/10/06 03:42:03;;;;;;;8.50;3.10;;;;;;;;;;5096624;28;20211;-64
2022/10/06 03:44:33;;;;;;;7.07;3.50;;;;;;;;;;5096878;28;20697;-64
2022/10/06 03:47:01;;;;;;;6.57;2.50;;;;;;;;;;5096894;28;20533;-63
2022/10/06 03:49:30;;;;;;;3.70;3.10;;;;;;;;;;5089466;28;20281;-64
2022/10/06 03:51:58;;;;;;;4.33;2.70;;;;;;;;;;5096779;28;20735;-64
2022/10/06 03:54:26;;;;;;;3.90;2.53;;;;;;;;;;5089021;28;20227;-64
2022/10/06 03:56:54;;;;;;;10.33;3.00;;;;;;;;;;5097032;28;20198;-64
2022/10/06 03:59:23;;;;;;;8.57;4.20;;;;;;;;;;5096421;28;20221;-64
2022/10/06 04:01:52;;;;;;;10.17;4.73;;;;;;;;;;5096848;28;20264;-64
2022/10/06 04:04:20;;;;;;;3.77;3.00;;;;;;;;;;5096464;28;20228;-64
2022/10/06 04:06:48;;;;;;;5.10;3.20;;;;;;;;;;5097097;28;20202;-63
2022/10/06 04:09:16;;;;;;;7.77;2.93;;;;;;;;;;5096751;28;20198;-63
2022/10/06 04:11:45;;;;;;;6.07;3.00;;;;;;;;;;5097030;28;20261;-63
2022/10/06 04:14:14;;;;;;;7.90;3.17;;;;;;;;;;5096428;28;20218;-63
2022/10/06 04:16:44;;;;;;;9.80;3.20;;;;;;;;;;5096826;28;20211;-63
2022/10/06 04:19:13;;;;;;;8.57;3.00;;;;;;;;;;5096354;28;20249;-64
2022/10/06 04:21:42;;;;;;;8.40;3.20;;;;;;;;;;5099519;28;20261;-64
2022/10/06 04:24:10;;;;;;;9.53;3.17;;;;;;;;;;5099905;28;20700;-63
2022/10/06 04:26:40;;;;;;;4.47;2.70;;;;;;;;;;5100376;28;20203;-64
2022/10/06 04:29:08;;;;;;;6.43;3.20;;;;;;;;;;5099945;28;20651;-63
2022/10/06 04:31:37;;;;;;;5.10;2.87;;;;;;;;;;5092032;28;20209;-63
2022/10/06 04:34:07;;;;;;;4.43;2.93;;;;;;;;;;5100176;28;20647;-64
2022/10/06 04:36:38;;;;;;;5.13;2.40;;;;;;;;;;5100124;28;20673;-64
2022/10/06 04:39:09;;;;;;;3.60;2.63;;;;;;;;;;5100517;28;20213;-63
2022/10/06 04:41:38;;;;;;;4.90;2.70;;;;;;;;;;5100555;28;20193;-62
2022/10/06 04:44:07;;;;;;;3.90;2.70;;;;;;;;;;5100005;28;20221;-62
2022/10/06 04:46:36;;;;;;;3.47;2.70;;;;;;;;;;5099907;28;20223;-63
2022/10/06 04:49:12;;;;;;;7.17;2.70;;;;;;;;;;5100161;28;20262;-64
2022/10/06 04:51:47;;;;;;;4.90;3.00;;;;;;;;;;5099917;28;20313;-63
2022/10/06 04:54:15;;;;;;;3.57;2.93;;;;;;;;;;5100073;28;20220;-64
2022/10/06 04:56:43;;;;;;;4.13;2.77;;;;;;;;;;5095676;28;20581;-64
2022/10/06 04:59:11;;;;;;;5.23;3.07;;;;;;;;;;5105531;28;20277;-62
2022/10/06 05:01:39;;;;;;;4.80;2.83;;;;;;;;;;5106860;28;20307;-64
2022/10/06 05:04:07;;;;;;;6.73;2.80;;;;;;;;;;5107788;28;20220;-64
2022/10/06 05:06:37;;;;;;;4.23;2.80;;;;;;;;;;5105139;28;20205;-64
2022/10/06 05:09:06;;;;;;;3.23;2.40;;;;;;;;;;5106287;28;20277;-64
2022/10/06 05:11:35;;;;;;;6.07;2.67;;;;;;;;;;5098324;28;20259;-62
2022/10/06 05:14:03;;;;;;;6.97;3.20;;;;;;;;;;5098074;28;20312;-64
2022/10/06 05:16:31;;;;;;;4.20;2.70;;;;;;;;;;5097140;28;20693;-64
2022/10/06 05:19:00;;;;;;;5.60;2.77;;;;;;;;;;5098642;28;20256;-64
2022/10/06 05:21:29;;;;;;;7.70;2.83;;;;;;;;;;5098214;28;20626;-64
2022/10/06 05:24:04;;;;;;;8.27;3.40;;;;;;;;;;5097236;28;20221;-64
2022/10/06 05:26:33;;;;;;;6.07;3.23;;;;;;;;;;5095992;28;20286;-63
2022/10/06 05:29:02;;;;;;;6.00;3.10;;;;;;;;;;5098054;28;20289;-64
2022/10/06 05:31:31;;;;;;;7.83;3.43;;;;;;;;;;5095091;28;20201;-64
2022/10/06 05:34:00;;;;;;;5.27;2.73;;;;;;;;;;5097367;28;20240;-64
2022/10/06 05:36:29;;;;;;;5.57;2.70;;;;;;;;;;5097982;28;20202;-64
2022/10/06 05:38:58;;;;;;;7.53;2.93;;;;;;;;;;5096573;28;20305;-63
2022/10/06 05:41:29;;;;;;;7.43;3.43;;;;;;;;;;5097623;28;20571;-64
2022/10/06 05:43:57;;;;;;;4.90;2.70;;;;;;;;;;5095854;28;20224;-64
2022/10/06 05:46:27;;;;;;;3.90;2.43;;;;;;;;;;5097998;28;20251;-64
2022/10/06 05:48:56;;;;;;;6.23;2.43;;;;;;;;;;5097725;28;20194;-63
2022/10/06 05:51:25;;;;;;;6.07;2.70;;;;;;;;;;5097520;28;20616;-63
2022/10/06 05:53:58;;;;;;;6.40;2.77;;;;;;;;;;5097827;28;20254;-64
2022/10/06 05:56:26;;;;;;;5.23;2.83;;;;;;;;;;5097056;28;20201;-62
2022/10/06 05:58:56;;;;;;;6.00;3.13;;;;;;;;;;5099040;28;20307;-63
2022/10/06 06:01:25;;;;;;;12.20;7.50;;;;;;;;;;5106149;28;20240;-62
2022/10/06 06:03:54;;;;;;;8.77;3.30;;;;;;;;;;5104364;28;20245;-63
2022/10/06 06:06:23;;;;;;;6.93;3.10;;;;;;;;;;5109023;28;20197;-62
2022/10/06 06:08:52;;;;;;;6.23;3.93;;;;;;;;;;5106701;28;20284;-62
2022/10/06 06:11:24;;;;;;;7.53;4.90;;;;;;;;;;5107818;28;20215;-63
2022/10/06 06:13:52;;;;;;;9.60;3.73;;;;;;;;;;5099072;28;20309;-62
2022/10/06 06:16:21;;;;;;;6.00;3.33;;;;;;;;;;5098072;28;20201;-62
2022/10/06 06:18:49;;;;;;;9.43;3.43;;;;;;;;;;5100374;28;20225;-63
2022/10/06 06:21:17;;;;;;;6.97;3.17;;;;;;;;;;5103083;28;20201;-63
2022/10/06 06:23:46;;;;;;;10.90;3.07;;;;;;;;;;5097325;28;20281;-63
2022/10/06 06:26:14;;;;;;;6.70;3.47;;;;;;;;;;5097434;28;20193;-65
2022/10/06 06:28:45;;;;;;;10.57;3.40;;;;;;;;;;5097548;28;20227;-62
2022/10/06 06:31:14;;;;;;;7.50;3.50;;;;;;;;;;5090220;28;20227;-64
2022/10/06 06:33:50;;;;;;;5.10;3.23;;;;;;;;;;5097731;28;20231;-64
2022/10/06 06:36:19;;;;;;;7.10;3.63;;;;;;;;;;5097773;28;20627;-64
2022/10/06 06:38:48;;;;;;;6.33;3.63;;;;;;;;;;5097674;28;20645;-64
2022/10/06 06:41:17;;;;;;;9.10;3.90;;;;;;;;;;5097941;28;20284;-64
2022/10/06 06:43:45;;;;;;;7.73;3.97;;;;;;;;;;5097471;28;20228;-64
2022/10/06 06:46:14;;;;;;;6.83;3.80;;;;;;;;;;5097869;28;20193;-62
2022/10/06 06:48:44;;;;;;;7.40;3.90;;;;;;;;;;5097818;28;20212;-62
2022/10/06 06:51:14;;;;;;;10.77;4.10;;;;;;;;;;5097110;28;20206;-64
2022/10/06 06:53:42;;;;;;;6.50;4.03;;;;;;;;;;5096895;28;20408;-64
2022/10/06 06:56:10;;;;;;;9.57;3.90;;;;;;;;;;5096814;28;20204;-64
2022/10/06 06:58:38;;;;;;;13.57;4.47;;;;;;;;;;5097243;28;20734;-63
2022/10/06 07:01:07;;;;;;;5.00;4.07;;;;;;;;;;5097308;28;20305;-63
2022/10/06 07:03:35;;;;;;;7.47;4.40;;;;;;;;;;5092564;28;20225;-63
2022/10/06 07:06:27;;;;;;;5.63;4.17;;;;;;;;;;5093014;28;20665;-64
2022/10/06 07:08:56;;;;;;;13.47;3.77;;;;;;;;;;5093503;28;20204;-63
2022/10/06 07:11:25;;;;;;;15.00;3.83;;;;;;;;;;5097046;28;20288;-64
2022/10/06 07:13:54;;;;;;;8.67;3.43;;;;;;;;;;5096967;28;20710;-63
2022/10/06 07:27:28;;;;;;;4.37;2.63;;;;;;;;;;5105254;28;20201;-63
2022/10/06 07:29:56;;;;;;;4.17;2.27;;;;;;;;;;5095346;28;20277;-63
2022/10/06 07:32:25;;;;;;;5.43;2.40;;;;;;;;;;5095375;28;20208;-65
2022/10/06 07:34:53;;;;;;;4.73;2.07;;;;;;;;;;5095196;28;20300;-65
2022/10/06 07:37:24;;;;;;;5.40;2.30;;;;;;;;;;5095363;28;20202;-64
2022/10/06 07:39:52;;;;;;;5.50;2.40;;;;;;;;;;5094946;28;20230;-62
2022/10/06 07:42:20;;;;;;;5.93;2.60;;;;;;;;;;5094972;28;20715;-64
2022/10/06 07:45:37;;;;;;;11.13;2.60;;;;;;;;;;5094906;28;20232;-64
2022/10/06 07:47:37;;;;;;;2.97;2.20;;;;;;;;;;5094140;28;20626;-63
2022/10/06 07:50:06;;;;;;;2.70;2.23;;;;;;;;;;5093300;28;20221;-64
2022/10/06 07:52:38;;;;;;;2.50;2.00;;;;;;;;;;5096341;28;20297;-64
2022/10/06 07:55:06;;;;;;;3.87;2.40;;;;;;;;;;5098713;28;20221;-64
2022/10/06 07:57:34;;;;;;;2.90;2.47;;;;;;;;;;5106575;28;20201;-65
2022/10/06 08:00:04;;;;;;;4.40;2.30;;;;;;;;;;5106774;28;20217;-63
2022/10/06 08:02:32;;;;;;;4.90;2.97;;;;;;;;;;5100979;28;20301;-63
2022/10/06 08:05:03;;;;;;;5.63;2.63;;;;;;;;;;5099942;28;20229;-63
2022/10/06 08:07:31;;;;;;;4.87;2.77;;;;;;;;;;5107179;28;20639;-63
2022/10/06 08:10:01;;;;;;;6.57;2.73;;;;;;;;;;5107625;28;20687;-64
2022/10/06 08:12:36;;;;;;;6.07;2.27;;;;;;;;;;5108712;28;20233;-63
2022/10/06 08:15:05;;;;;;;4.13;2.07;;;;;;;;;;5106937;28;20220;-64
2022/10/06 08:17:35;;;;;;;4.30;2.37;;;;;;;;;;5111447;28;20258;-64
2022/10/06 08:20:03;;;;;;;9.30;2.70;;;;;;;;;;5108598;27;20226;-63
2022/10/06 08:22:32;;;;;;;6.87;2.77;;;;;;;;;;5108333;28;20196;-63
2022/10/06 08:25:01;;;;;;;4.10;2.90;;;;;;;;;;5107513;28;20217;-62
2022/10/06 08:27:34;;;;;;;9.43;2.93;;;;;;;;;;5108436;28;20204;-62
2022/10/06 08:30:02;;;;;;;4.33;2.20;;;;;;;;;;5109185;28;20201;-64
2022/10/06 08:32:30;;;;;;;5.90;2.50;;;;;;;;;;5108009;28;20288;-62
2022/10/06 08:34:59;;;;;;;11.13;2.83;;;;;;;;;;5106594;28;20221;-63
2022/10/06 08:37:29;;;;;;;4.50;2.33;;;;;;;;;;5106176;28;20212;-63
2022/10/06 08:39:57;;;;;;;2.73;2.00;;;;;;;;;;5104548;28;20208;-63
2022/10/06 08:42:30;;;;;;;5.50;2.30;;;;;;;;;;5109785;27;20236;-63
2022/10/06 08:45:00;;;;;;;7.77;2.43;;;;;;;;;;5105116;28;20230;-63
2022/10/06 08:47:32;;;;;;;5.43;2.77;;;;;;;;;;5098752;28;20204;-61
2022/10/06 08:50:01;;;;;;;4.67;2.53;;;;;;;;;;5099681;28;20628;-62
2022/10/06 08:52:36;;;;;;;4.77;2.80;;;;;;;;;;5097138;28;20316;-64
2022/10/06 08:55:07;;;;;;;3.23;2.40;;;;;;;;;;5096050;28;20303;-64
2022/10/06 08:57:42;;;;;;;5.13;2.47;;;;;;;;;;5099087;28;20220;-63
2022/10/06 09:00:11;;;;;;;6.27;2.87;;;;;;;;;;5097953;28;20197;-64
2022/10/06 09:02:44;;;;;;;5.87;2.70;;;;;;;;;;5099793;28;20208;-63
2022/10/06 09:05:14;;;;;;;4.90;2.00;;;;;;;;;;5101055;28;20252;-64
2022/10/06 09:07:47;;;;;;;7.37;2.60;;;;;;;;;;5101505;28;20289;-64
2022/10/06 09:10:22;;;;;;;7.10;2.73;;;;;;;;;;5092717;28;20281;-64
2022/10/06 09:12:54;;;;;;;3.93;2.67;;;;;;;;;;5097294;28;20269;-64
2022/10/06 09:15:28;;;;;;;5.23;2.57;;;;;;;;;;5097468;28;20280;-64
2022/10/06 09:17:59;;;;;;;7.30;3.00;;;;;;;;;;5099336;28;20201;-64
2022/10/06 09:20:30;;;;;;;6.03;2.83;;;;;;;;;;5099320;28;20343;-64
2022/10/06 09:23:00;;;;;;;10.70;3.23;;;;;;;;;;5099109;28;20235;-64
2022/10/06 09:25:29;;;;;;;5.60;2.60;;;;;;;;;;5099032;28;20240;-62
2022/10/06 09:27:59;;;;;;;5.57;2.60;;;;;;;;;;5098440;28;20201;-64
2022/10/06 09:30:28;;;;;;;7.07;2.83;;;;;;;;;;5096174;28;20219;-63
2022/10/06 09:32:58;;;;;;;8.30;2.83;;;;;;;;;;5108119;28;20197;-63
2022/10/06 09:35:27;;;;;;;6.20;2.80;;;;;;;;;;5102873;28;20281;-64
2022/10/06 09:37:57;;;;;;;6.43;3.20;;;;;;;;;;5101105;27;20201;-63
2022/10/06 09:40:35;;;;;;;4.77;2.57;;;;;;;;;;5097500;28;20231;-62
2022/10/06 09:43:15;;;;;;;3.60;2.67;;;;;;;;;;5096760;28;20276;-63
2022/10/06 09:45:43;;;;;;;5.63;2.67;;;;;;;;;;5092529;28;20198;-63
2022/10/06 09:48:12;;;;;;;5.73;2.77;;;;;;;;;;5098304;28;20280;-64
2022/10/06 09:50:41;;;;;;;8.27;2.83;;;;;;;;;;5098237;28;20201;-64
2022/10/06 09:53:10;;;;;;;14.10;3.07;;;;;;;;;;5097744;28;20228;-63
2022/10/06 09:55:44;;;;;;;8.03;2.93;;;;;;;;;;5100505;28;20565;-63
2022/10/06 09:58:19;;;;;;;3.83;2.90;;;;;;;;;;5092239;28;20567;-63
2022/10/06 10:00:48;;;;;;;12.57;3.20;;;;;;;;;;5091150;28;20221;-63
2022/10/06 10:03:16;;;;;;;5.77;2.73;;;;;;;;;;5097455;28;20308;-64
2022/10/06 10:05:47;;;;;;;4.27;2.70;;;;;;;;;;5103762;28;20228;-63
2022/10/06 10:08:20;;;;;;;6.13;2.47;;;;;;;;;;5102742;28;20200;-65
2022/10/06 10:10:49;;;;;;;7.07;2.50;;;;;;;;;;5097899;28;20280;-66
2022/10/06 10:13:20;;;;;;;6.27;3.13;;;;;;;;;;5097955;28;20228;-64
2022/10/06 10:15:52;;;;;;;8.00;3.10;;;;;;;;;;5101211;28;20204;-64
2022/10/06 10:18:25;;;;;;;5.10;2.90;;;;;;;;;;5105505;28;20209;-63
2022/10/06 10:20:56;;;;;;;7.67;2.33;;;;;;;;;;5101527;28;20649;-64
2022/10/06 10:23:25;;;;;;;6.63;2.57;;;;;;;;;;5106030;28;20236;-64
2022/10/06 10:26:17;;;;;;;3.23;2.40;;;;;;;;;;5106594;28;20284;-63
2022/10/06 10:29:06;;;;;;;4.73;2.30;;;;;;;;;;5097656;28;20724;-63
2022/10/06 10:31:42;;;;;;;3.90;2.20;;;;;;;;;;5093502;28;20190;-63
2022/10/06 10:34:17;;;;;;;4.80;2.80;;;;;;;;;;5097470;28;20248;-64
2022/10/06 10:36:54;;;;;;;5.63;2.83;;;;;;;;;;5103492;28;20232;-64
2022/10/06 10:39:29;;;;;;;4.90;2.30;;;;;;;;;;5101088;28;20617;-63
2022/10/06 10:41:59;;;;;;;4.27;2.43;;;;;;;;;;5093876;28;20216;-64
2022/10/06 10:44:29;;;;;;;4.70;2.93;;;;;;;;;;5097299;28;20256;-63
2022/10/06 10:47:05;;;;;;;7.87;2.93;;;;;;;;;;5097246;28;20216;-63
2022/10/06 10:49:35;;;;;;;6.53;2.50;;;;;;;;;;5097648;28;20201;-63
2022/10/06 10:52:07;;;;;;;6.53;2.37;;;;;;;;;;5097304;28;20308;-63
2022/10/06 10:54:38;;;;;;;7.77;2.80;;;;;;;;;;5097162;28;20580;-64
2022/10/06 10:57:10;;;;;;;7.53;2.37;;;;;;;;;;5097381;28;20244;-63
2022/10/06 10:59:41;;;;;;;6.60;2.60;;;;;;;;;;5097017;28;20205;-63
2022/10/06 11:02:12;;;;;;;3.53;2.20;;;;;;;;;;5097340;28;20217;-63
2022/10/06 11:04:42;;;;;;;4.30;2.40;;;;;;;;;;5091778;28;20217;-63
2022/10/06 11:07:14;;;;;;;3.33;2.50;;;;;;;;;;5097723;28;20292;-63
2022/10/06 11:09:48;;;;;;;7.23;2.30;;;;;;;;;;5098168;28;20225;-64
2022/10/06 11:12:19;;;;;;;2.80;2.07;;;;;;;;;;5097697;28;20589;-63
2022/10/06 11:14:53;;;;;;;3.40;2.10;;;;;;;;;;5096987;28;20554;-63
2022/10/06 11:17:45;;;;;;;5.23;2.60;;;;;;;;;;5096917;28;20205;-63
2022/10/06 11:20:23;;;;;;;2.20;1.87;;;;;;;;;;5093891;28;20622;-63
2022/10/06 11:22:54;;;;;;;5.20;2.27;;;;;;;;;;5097285;28;20217;-64
2022/10/06 11:25:29;;;;;;;3.77;2.03;;;;;;;;;;5096825;28;20201;-64
2022/10/06 11:28:05;;;;;;;9.13;2.27;;;;;;;;;;5096761;28;20201;-64
2022/10/06 11:30:36;;;;;;;8.30;2.87;;;;;;;;;;5095970;28;20672;-64
2022/10/06 11:33:09;;;;;;;2.33;2.00;;;;;;;;;;5096928;28;20255;-63
2022/10/06 11:35:41;;;;;;;4.37;2.30;;;;;;;;;;5096575;28;20761;-62
2022/10/06 11:38:12;;;;;;;3.43;2.47;;;;;;;;;;5097028;28;20276;-63
2022/10/06 11:40:55;;;;;;;8.53;2.57;;;;;;;;;;5096468;28;20565;-64
2022/10/06 11:43:29;;;;;;;4.67;2.43;;;;;;;;;;5094555;28;20236;-64
2022/10/06 11:46:02;;;;;;;4.17;2.50;;;;;;;;;;5089623;28;20275;-65
2022/10/06 11:48:30;;;;;;;2.60;2.13;;;;;;;;;;5096912;28;20564;-63
2022/10/06 11:51:27;;;;;;;4.70;2.43;;;;;;;;;;5096827;28;20198;-64
2022/10/06 11:53:55;;;;;;;4.77;2.50;;;;;;;;;;5094257;28;20226;-63
2022/10/06 11:56:38;;;;;;;4.33;2.20;;;;;;;;;;5096626;28;20300;-64
2022/10/06 11:59:10;;;;;;;3.77;2.67;;;;;;;;;;5094828;28;20557;-63
2022/10/06 12:01:51;;;;;;;4.47;2.27;;;;;;;;;;5096409;28;20208;-64
2022/10/06 12:04:19;;;;;;;5.23;2.53;;;;;;;;;;5090825;28;20252;-64
2022/10/06 12:06:54;;;;;;;5.63;2.67;;;;;;;;;;5096666;28;20197;-63
2022/10/06 12:09:32;;;;;;;4.27;2.00;;;;;;;;;;5096578;28;20641;-63
2022/10/06 12:12:02;;;;;;;7.53;2.63;;;;;;;;;;5096633;28;20208;-64
2022/10/06 12:14:37;;;;;;;4.47;2.27;;;;;;;;;;5096537;28;20225;-63
2022/10/06 12:17:27;;;;;;;5.97;2.20;;;;;;;;;;5090005;28;20537;-65
2022/10/06 12:19:59;;;;;;;3.30;2.70;;;;;;;;;;5096344;28;20205;-65
2022/10/06 12:22:31;;;;;;;3.70;2.00;;;;;;;;;;5096716;28;20231;-64
2022/10/06 12:25:04;;;;;;;4.30;2.40;;;;;;;;;;5097133;28;20247;-64
2022/10/06 12:27:37;;;;;;;6.43;2.40;;;;;;;;;;5096653;28;20241;-64
2022/10/06 12:30:14;;;;;;;4.23;2.30;;;;;;;;;;5097254;28;20214;-64
2022/10/06 12:32:46;;;;;;;4.90;2.40;;;;;;;;;;5097154;28;20203;-65
2022/10/06 12:35:23;;;;;;;6.27;2.13;;;;;;;;;;5097180;28;20230;-64
2022/10/06 12:37:53;;;;;;;6.27;2.40;;;;;;;;;;5097117;28;20206;-64
2022/10/06 12:40:40;;;;;;;6.17;2.30;;;;;;;;;;5097203;28;20216;-64
2022/10/06 12:43:41;;;;;;;8.50;2.90;;;;;;;;;;5100014;28;20232;-64
2022/10/06 12:46:15;;;;;;;4.00;2.23;;;;;;;;;;5100452;28;20202;-64
2022/10/06 12:48:50;;;;;;;5.10;2.20;;;;;;;;;;5100623;28;20285;-64
2022/10/06 12:51:24;;;;;;;5.03;2.13;;;;;;;;;;5100257;28;20213;-64
2022/10/06 12:53:57;;;;;;;4.20;2.27;;;;;;;;;;5100559;28;20260;-63
2022/10/06 12:56:27;;;;;;;2.63;2.00;;;;;;;;;;5100152;28;20211;-63
2022/10/06 12:58:56;;;;;;;4.73;2.17;;;;;;;;;;5100222;28;20293;-63
2022/10/06 13:01:25;;;;;;;7.73;2.23;;;;;;;;;;5100351;28;20241;-64
2022/10/06 13:03:54;;;;;;;5.53;2.43;;;;;;;;;;5100128;28;20221;-62
2022/10/06 13:06:23;;;;;;;6.20;2.33;;;;;;;;;;5100211;28;20237;-63
2022/10/06 13:09:07;;;;;;;4.87;2.47;;;;;;;;;;5099459;28;20217;-63
2022/10/06 13:11:35;;;;;;;7.47;2.70;;;;;;;;;;5099923;28;20213;-63
2022/10/06 13:14:10;;;;;;;5.37;2.63;;;;;;;;;;5099779;28;20293;-63
2022/10/06 13:16:39;;;;;;;4.47;2.07;;;;;;;;;;5099757;28;20232;-63
2022/10/06 13:19:14;;;;;;;6.97;3.50;;;;;;;;;;5099997;28;20209;-63
2022/10/06 13:21:42;;;;;;;7.67;2.50;;;;;;;;;;5099684;28;20201;-63
2022/10/06 13:24:13;;;;;;;4.47;2.17;;;;;;;;;;5099703;28;20227;-64
2022/10/06 13:26:41;;;;;;;5.07;2.27;;;;;;;;;;5099653;28;20295;-64
2022/10/06 13:29:16;;;;;;;2.97;1.83;;;;;;;;;;5099564;28;20210;-64
2022/10/06 13:31:46;;;;;;;1.80;1.70;;;;;;;;;;5099948;28;20202;-64
2022/10/06 13:34:22;;;;;;;3.43;2.13;;;;;;;;;;5099519;28;20773;-65
2022/10/06 13:36:51;;;;;;;5.40;1.77;;;;;;;;;;5099615;28;20217;-64
2022/10/06 13:39:21;;;;;;;5.20;2.00;;;;;;;;;;5099770;28;20643;-64
2022/10/06 13:41:50;;;;;;;5.63;1.97;;;;;;;;;;5099934;28;20282;-64
2022/10/06 13:44:30;;;;;;;5.97;2.30;;;;;;;;;;5098834;28;20270;-64
2022/10/06 13:47:00;;;;;;;5.13;2.67;;;;;;;;;;5099134;28;20231;-64
2022/10/06 13:49:30;;;;;;;5.70;2.13;;;;;;;;;;5099856;28;20295;-64
2022/10/06 13:52:00;;;;;;;5.30;2.27;;;;;;;;;;5099304;28;20239;-63
2022/10/06 13:54:33;;;;;;;3.03;1.90;;;;;;;;;;5098330;28;20245;-64
2022/10/06 13:57:01;;;;;;;3.10;2.00;;;;;;;;;;5099017;28;20288;-64
2022/10/06 13:59:33;;;;;;;7.00;2.13;;;;;;;;;;5098912;28;20706;-64
2022/10/06 14:02:14;;;;;;;5.80;1.93;;;;;;;;;;5099023;28;20208;-64
2022/10/06 14:04:42;;;;;;;6.70;2.33;;;;;;;;;;5098811;28;20248;-63
2022/10/06 14:07:11;;;;;;;10.77;2.30;;;;;;;;;;5099127;28;20217;-64
2022/10/06 14:09:42;;;;;;;6.20;2.10;;;;;;;;;;5098718;28;20206;-64
2022/10/06 14:12:12;;;;;;;4.30;2.03;;;;;;;;;;5098791;28;20658;-64
2022/10/06 14:14:45;;;;;;;7.97;2.27;;;;;;;;;;5098878;28;20275;-64
2022/10/06 14:17:21;;;;;;;3.27;1.90;;;;;;;;;;5098745;28;20205;-63
2022/10/06 14:19:49;;;;;;;6.40;2.13;;;;;;;;;;5098567;28;20305;-63
2022/10/06 14:22:31;;;;;;;11.53;2.03;;;;;;;;;;5098011;28;20220;-64
2022/10/06 14:25:00;;;;;;;7.67;1.73;;;;;;;;;;5098727;28;20222;-64
2022/10/06 14:27:28;;;;;;;7.00;2.20;;;;;;;;;;5098984;28;20239;-64
2022/10/06 14:29:57;;;;;;;5.07;2.00;;;;;;;;;;5099044;28;20218;-63
2022/10/06 14:32:25;;;;;;;6.07;2.40;;;;;;;;;;5098962;28;20665;-64
2022/10/06 14:34:53;;;;;;;6.93;2.07;;;;;;;;;;5099058;28;20224;-64
2022/10/06 14:37:21;;;;;;;3.87;1.93;;;;;;;;;;5099392;28;20286;-64
2022/10/06 14:39:50;;;;;;;5.17;1.97;;;;;;;;;;5098449;28;20217;-64
2022/10/06 14:42:23;;;;;;;4.17;1.67;;;;;;;;;;5097881;28;20315;-63
2022/10/06 14:44:51;;;;;;;5.27;1.67;;;;;;;;;;5098237;28;20239;-64
2022/10/06 14:47:19;;;;;;;8.83;4.60;;;;;;;;;;5098428;28;20202;-64
2022/10/06 14:49:47;;;;;;;5.07;1.67;;;;;;;;;;5098087;28;20216;-64
2022/10/06 14:52:15;;;;;;;1.77;1.67;;;;;;;;;;5098044;28;20325;-64
2022/10/06 14:54:43;;;;;;;3.90;1.97;;;;;;;;;;5098280;28;20228;-64
2022/10/06 14:57:12;;;;;;;6.70;1.90;;;;;;;;;;5098346;28;20292;-63
2022/10/06 14:59:41;;;;;;;6.23;2.17;;;;;;;;;;5098248;28;20205;-63
2022/10/06 15:02:10;;;;;;;3.53;1.73;;;;;;;;;;5097987;28;20575;-64
2022/10/06 15:04:38;;;;;;;5.53;2.30;;;;;;;;;;5097762;28;20225;-64
2022/10/06 15:09:51;;;;;;;4.57;1.90;;;;;;;;;;5097926;28;20207;-63
2022/10/06 15:12:19;;;;;;;4.77;1.83;;;;;;;;;;5097938;28;20213;-64
2022/10/06 15:14:49;;;;;;;1.43;1.33;;;;;;;;;;5097973;28;20221;-63
2022/10/06 15:17:16;;;;;;;4.13;1.50;;;;;;;;;;5098177;28;20752;-64